sensor_id;sensor_type;location;lat;lon;timestamp;P1;durP1;ratioP1;P2;durP2;ratioP2
10904;SDS011;5505;51.450;9.254;2023-02-08T00:01:38;13.47;;;9.20;;
10904;SDS011;5505;51.450;9.254;2023-02-08T00:04:25;11.77;;;8.77;;
10904;SDS011;5505;51.450;9.254;2023-02-08T00:07:11;12.43;;;8.73;;
10904;SDS011;5505;51.450;9.254;2023-02-08T00:09:58;13.40;;;9.03;;
10904;SDS011;5505;51.450;9.254;2023-02-08T00:12:46;12.40;;;8.97;;
10904;SDS011;5505;51.450;9.254;2023-02-08T00:15:39;13.83;;;9.03;;
10904;SDS011;5505;51.450;9.254;2023-02-08T00:18:26;12.90;;;9.27;;
10904;SDS011;5505;51.450;9.254;2023-02-08T00:21:14;14.20;;;9.47;;
10904;SDS011;5505;51.450;9.254;2023-02-08T00:24:02;13.53;;;9.20;;
10904;SDS011;5505;51.450;9.254;2023-02-08T00:26:49;14.37;;;10.03;;
10904;SDS011;5505;51.450;9.254;2023-02-08T00:29:37;13.93;;;9.77;;
10904;SDS011;5505;51.450;9.254;2023-02-08T00:32:24;13.03;;;9.83;;
10904;SDS011;5505;51.450;9.254;2023-02-08T00:35:11;14.90;;;11.10;;
10904;SDS011;5505;51.450;9.254;2023-02-08T00:37:58;14.03;;;9.70;;
10904;SDS011;5505;51.450;9.254;2023-02-08T00:40:44;15.37;;;9.77;;
10904;SDS011;5505;51.450;9.254;2023-02-08T00:43:31;13.93;;;9.67;;
10904;SDS011;5505;51.450;9.254;2023-02-08T00:46:19;15.00;;;10.53;;
10904;SDS011;5505;51.450;9.254;2023-02-08T00:49:06;15.20;;;9.57;;
10904;SDS011;5505;51.450;9.254;2023-02-08T00:51:53;14.53;;;9.13;;
10904;SDS011;5505;51.450;9.254;2023-02-08T00:54:40;12.13;;;9.33;;
10904;SDS011;5505;51.450;9.254;2023-02-08T00:57:27;11.10;;;8.63;;
10904;SDS011;5505;51.450;9.254;2023-02-08T01:00:14;10.20;;;7.90;;
10904;SDS011;5505;51.450;9.254;2023-02-08T01:03:02;11.73;;;8.70;;
10904;SDS011;5505;51.450;9.254;2023-02-08T01:05:49;15.47;;;9.80;;
10904;SDS011;5505;51.450;9.254;2023-02-08T01:08:36;12.03;;;8.90;;
10904;SDS011;5505;51.450;9.254;2023-02-08T01:11:23;12.37;;;9.43;;
10904;SDS011;5505;51.450;9.254;2023-02-08T01:14:10;13.03;;;9.50;;
10904;SDS011;5505;51.450;9.254;2023-02-08T01:16:57;13.37;;;8.70;;
10904;SDS011;5505;51.450;9.254;2023-02-08T01:19:45;11.90;;;7.93;;
10904;SDS011;5505;51.450;9.254;2023-02-08T01:22:32;11.40;;;8.67;;
10904;SDS011;5505;51.450;9.254;2023-02-08T01:25:19;12.10;;;8.47;;
10904;SDS011;5505;51.450;9.254;2023-02-08T01:28:05;10.40;;;7.83;;
10904;SDS011;5505;51.450;9.254;2023-02-08T01:30:52;11.70;;;8.13;;
10904;SDS011;5505;51.450;9.254;2023-02-08T01:33:39;11.80;;;9.00;;
10904;SDS011;5505;51.450;9.254;2023-02-08T01:36:28;10.83;;;8.40;;
10904;SDS011;5505;51.450;9.254;2023-02-08T01:39:16;9.67;;;7.23;;
10904;SDS011;5505;51.450;9.254;2023-02-08T01:42:02;11.77;;;8.20;;
10904;SDS011;5505;51.450;9.254;2023-02-08T01:48:09;11.83;;;7.90;;
10904;SDS011;5505;51.450;9.254;2023-02-08T01:51:02;11.13;;;7.77;;
10904;SDS011;5505;51.450;9.254;2023-02-08T01:53:54;11.97;;;7.90;;
10904;SDS011;5505;51.450;9.254;2023-02-08T01:56:43;11.67;;;7.90;;
10904;SDS011;5505;51.450;9.254;2023-02-08T01:59:31;10.70;;;8.10;;
10904;SDS011;5505;51.450;9.254;2023-02-08T02:02:22;12.57;;;8.30;;
10904;SDS011;5505;51.450;9.254;2023-02-08T02:05:10;10.57;;;8.20;;
10904;SDS011;5505;51.450;9.254;2023-02-08T02:07:57;14.97;;;9.03;;
10904;SDS011;5505;51.450;9.254;2023-02-08T02:10:47;11.87;;;9.33;;
10904;SDS011;5505;51.450;9.254;2023-02-08T02:13:34;13.87;;;9.40;;
10904;SDS011;5505;51.450;9.254;2023-02-08T02:16:22;14.37;;;10.33;;
10904;SDS011;5505;51.450;9.254;2023-02-08T02:19:10;11.50;;;8.67;;
10904;SDS011;5505;51.450;9.254;2023-02-08T02:22:06;14.20;;;9.47;;
10904;SDS011;5505;51.450;9.254;2023-02-08T02:25:24;13.33;;;9.40;;
10904;SDS011;5505;51.450;9.254;2023-02-08T02:34:54;12.93;;;9.57;;
10904;SDS011;5505;51.450;9.254;2023-02-08T02:37:51;13.80;;;10.20;;
10904;SDS011;5505;51.450;9.254;2023-02-08T02:40:48;13.10;;;9.07;;
10904;SDS011;5505;51.450;9.254;2023-02-08T02:43:44;12.67;;;9.23;;
10904;SDS011;5505;51.450;9.254;2023-02-08T02:46:34;14.90;;;10.17;;
10904;SDS011;5505;51.450;9.254;2023-02-08T02:49:28;16.57;;;9.63;;
10904;SDS011;5505;51.450;9.254;2023-02-08T02:52:22;14.40;;;10.70;;
10904;SDS011;5505;51.450;9.254;2023-02-08T02:55:19;17.47;;;11.80;;
10904;SDS011;5505;51.450;9.254;2023-02-08T02:58:09;17.33;;;11.20;;
10904;SDS011;5505;51.450;9.254;2023-02-08T03:00:58;16.57;;;11.43;;
10904;SDS011;5505;51.450;9.254;2023-02-08T03:03:46;20.90;;;11.93;;
10904;SDS011;5505;51.450;9.254;2023-02-08T03:06:37;15.27;;;10.43;;
10904;SDS011;5505;51.450;9.254;2023-02-08T03:09:50;13.97;;;9.10;;
10904;SDS011;5505;51.450;9.254;2023-02-08T03:12:46;15.47;;;9.97;;
10904;SDS011;5505;51.450;9.254;2023-02-08T03:15:43;13.20;;;9.10;;
10904;SDS011;5505;51.450;9.254;2023-02-08T03:18:36;14.10;;;9.77;;
10904;SDS011;5505;51.450;9.254;2023-02-08T03:21:36;14.77;;;9.57;;
10904;SDS011;5505;51.450;9.254;2023-02-08T03:24:27;13.40;;;9.43;;
10904;SDS011;5505;51.450;9.254;2023-02-08T03:27:19;12.80;;;9.23;;
10904;SDS011;5505;51.450;9.254;2023-02-08T03:30:14;14.83;;;9.83;;
10904;SDS011;5505;51.450;9.254;2023-02-08T03:33:05;14.90;;;9.87;;
10904;SDS011;5505;51.450;9.254;2023-02-08T03:35:57;12.87;;;9.23;;
10904;SDS011;5505;51.450;9.254;2023-02-08T03:38:52;13.00;;;9.40;;
10904;SDS011;5505;51.450;9.254;2023-02-08T03:41:41;13.97;;;9.17;;
10904;SDS011;5505;51.450;9.254;2023-02-08T03:44:32;14.90;;;9.30;;
10904;SDS011;5505;51.450;9.254;2023-02-08T03:47:22;16.90;;;9.30;;
10904;SDS011;5505;51.450;9.254;2023-02-08T03:50:11;11.93;;;9.33;;
10904;SDS011;5505;51.450;9.254;2023-02-08T03:53:02;13.77;;;9.87;;
10904;SDS011;5505;51.450;9.254;2023-02-08T03:55:53;12.43;;;9.07;;
10904;SDS011;5505;51.450;9.254;2023-02-08T03:58:45;12.00;;;9.40;;
10904;SDS011;5505;51.450;9.254;2023-02-08T04:01:37;13.70;;;9.40;;
10904;SDS011;5505;51.450;9.254;2023-02-08T04:04:30;13.80;;;9.33;;
10904;SDS011;5505;51.450;9.254;2023-02-08T04:07:19;13.90;;;9.67;;
10904;SDS011;5505;51.450;9.254;2023-02-08T04:10:06;15.70;;;9.43;;
10904;SDS011;5505;51.450;9.254;2023-02-08T04:12:55;10.77;;;8.37;;
10904;SDS011;5505;51.450;9.254;2023-02-08T04:15:42;12.20;;;7.83;;
10904;SDS011;5505;51.450;9.254;2023-02-08T04:18:29;10.37;;;7.97;;
10904;SDS011;5505;51.450;9.254;2023-02-08T04:21:16;10.83;;;8.43;;
10904;SDS011;5505;51.450;9.254;2023-02-08T04:24:03;13.87;;;8.70;;
10904;SDS011;5505;51.450;9.254;2023-02-08T04:26:49;14.07;;;9.60;;
10904;SDS011;5505;51.450;9.254;2023-02-08T04:29:38;12.70;;;9.27;;
10904;SDS011;5505;51.450;9.254;2023-02-08T04:32:25;15.67;;;10.67;;
10904;SDS011;5505;51.450;9.254;2023-02-08T04:35:12;13.90;;;9.83;;
10904;SDS011;5505;51.450;9.254;2023-02-08T04:37:59;12.37;;;9.13;;
10904;SDS011;5505;51.450;9.254;2023-02-08T04:40:46;13.70;;;9.30;;
10904;SDS011;5505;51.450;9.254;2023-02-08T04:43:32;15.80;;;10.07;;
10904;SDS011;5505;51.450;9.254;2023-02-08T04:46:21;14.93;;;9.87;;
10904;SDS011;5505;51.450;9.254;2023-02-08T04:49:07;15.50;;;10.00;;
10904;SDS011;5505;51.450;9.254;2023-02-08T04:51:54;18.03;;;10.67;;
10904;SDS011;5505;51.450;9.254;2023-02-08T04:54:41;14.17;;;10.20;;
10904;SDS011;5505;51.450;9.254;2023-02-08T04:57:28;15.07;;;10.47;;
10904;SDS011;5505;51.450;9.254;2023-02-08T05:00:15;15.50;;;10.43;;
10904;SDS011;5505;51.450;9.254;2023-02-08T05:03:04;15.83;;;10.67;;
10904;SDS011;5505;51.450;9.254;2023-02-08T05:05:55;13.27;;;10.57;;
10904;SDS011;5505;51.450;9.254;2023-02-08T05:08:42;18.30;;;11.23;;
10904;SDS011;5505;51.450;9.254;2023-02-08T05:11:29;14.33;;;9.73;;
10904;SDS011;5505;51.450;9.254;2023-02-08T05:14:16;14.33;;;10.13;;
10904;SDS011;5505;51.450;9.254;2023-02-08T05:17:03;13.07;;;9.30;;
10904;SDS011;5505;51.450;9.254;2023-02-08T05:19:51;14.53;;;10.17;;
10904;SDS011;5505;51.450;9.254;2023-02-08T05:22:38;14.27;;;9.77;;
10904;SDS011;5505;51.450;9.254;2023-02-08T05:25:24;13.47;;;9.70;;
10904;SDS011;5505;51.450;9.254;2023-02-08T05:28:11;14.13;;;9.97;;
10904;SDS011;5505;51.450;9.254;2023-02-08T05:30:58;15.67;;;10.60;;
10904;SDS011;5505;51.450;9.254;2023-02-08T05:33:45;16.93;;;11.33;;
10904;SDS011;5505;51.450;9.254;2023-02-08T05:36:34;16.40;;;11.43;;
10904;SDS011;5505;51.450;9.254;2023-02-08T05:39:21;15.23;;;10.93;;
10904;SDS011;5505;51.450;9.254;2023-02-08T05:42:08;15.53;;;10.70;;
10904;SDS011;5505;51.450;9.254;2023-02-08T05:44:55;15.30;;;10.83;;
10904;SDS011;5505;51.450;9.254;2023-02-08T05:47:41;16.00;;;10.93;;
10904;SDS011;5505;51.450;9.254;2023-02-08T05:50:31;15.87;;;10.80;;
10904;SDS011;5505;51.450;9.254;2023-02-08T05:53:19;16.50;;;10.70;;
10904;SDS011;5505;51.450;9.254;2023-02-08T05:56:06;17.33;;;10.53;;
10904;SDS011;5505;51.450;9.254;2023-02-08T05:58:53;14.03;;;10.63;;
10904;SDS011;5505;51.450;9.254;2023-02-08T06:01:40;15.93;;;10.20;;
10904;SDS011;5505;51.450;9.254;2023-02-08T06:04:27;14.83;;;10.70;;
10904;SDS011;5505;51.450;9.254;2023-02-08T06:07:13;15.13;;;10.13;;
10904;SDS011;5505;51.450;9.254;2023-02-08T06:10:02;14.97;;;10.03;;
10904;SDS011;5505;51.450;9.254;2023-02-08T06:12:49;16.73;;;12.30;;
10904;SDS011;5505;51.450;9.254;2023-02-08T06:15:35;18.23;;;12.13;;
10904;SDS011;5505;51.450;9.254;2023-02-08T06:18:22;16.03;;;10.83;;
10904;SDS011;5505;51.450;9.254;2023-02-08T06:21:09;19.37;;;11.37;;
10904;SDS011;5505;51.450;9.254;2023-02-08T06:23:56;13.87;;;10.13;;
10904;SDS011;5505;51.450;9.254;2023-02-08T06:26:45;15.30;;;10.00;;
10904;SDS011;5505;51.450;9.254;2023-02-08T06:29:31;13.50;;;9.80;;
10904;SDS011;5505;51.450;9.254;2023-02-08T06:32:18;15.17;;;9.83;;
10904;SDS011;5505;51.450;9.254;2023-02-08T06:35:05;16.50;;;10.60;;
10904;SDS011;5505;51.450;9.254;2023-02-08T06:37:52;14.67;;;9.93;;
10904;SDS011;5505;51.450;9.254;2023-02-08T06:40:39;13.77;;;10.23;;
10904;SDS011;5505;51.450;9.254;2023-02-08T06:43:27;14.17;;;9.60;;
10904;SDS011;5505;51.450;9.254;2023-02-08T06:46:14;14.73;;;10.50;;
10904;SDS011;5505;51.450;9.254;2023-02-08T06:49:01;15.20;;;10.53;;
10904;SDS011;5505;51.450;9.254;2023-02-08T06:51:48;15.38;;;13.50;;
10904;SDS011;5505;51.450;9.254;2023-02-08T06:54:35;17.63;;;10.80;;
10904;SDS011;5505;51.450;9.254;2023-02-08T06:57:21;14.83;;;10.43;;
10904;SDS011;5505;51.450;9.254;2023-02-08T07:00:11;14.63;;;10.57;;
10904;SDS011;5505;51.450;9.254;2023-02-08T07:02:58;14.17;;;9.87;;
10904;SDS011;5505;51.450;9.254;2023-02-08T07:05:45;13.00;;;9.67;;
10904;SDS011;5505;51.450;9.254;2023-02-08T07:08:32;12.40;;;8.83;;
10904;SDS011;5505;51.450;9.254;2023-02-08T07:11:19;19.33;;;10.33;;
10904;SDS011;5505;51.450;9.254;2023-02-08T07:14:09;18.40;;;10.47;;
10904;SDS011;5505;51.450;9.254;2023-02-08T07:16:59;22.90;;;11.53;;
10904;SDS011;5505;51.450;9.254;2023-02-08T07:19:46;14.20;;;10.37;;
10904;SDS011;5505;51.450;9.254;2023-02-08T07:22:33;17.10;;;11.67;;
10904;SDS011;5505;51.450;9.254;2023-02-08T07:25:20;16.87;;;11.80;;
10904;SDS011;5505;51.450;9.254;2023-02-08T07:28:07;17.13;;;11.47;;
10904;SDS011;5505;51.450;9.254;2023-02-08T07:30:54;18.93;;;12.10;;
10904;SDS011;5505;51.450;9.254;2023-02-08T07:33:42;20.57;;;12.90;;
10904;SDS011;5505;51.450;9.254;2023-02-08T07:36:29;20.27;;;13.40;;
10904;SDS011;5505;51.450;9.254;2023-02-08T07:39:16;19.37;;;13.20;;
10904;SDS011;5505;51.450;9.254;2023-02-08T07:42:03;20.37;;;14.17;;
10904;SDS011;5505;51.450;9.254;2023-02-08T07:44:50;20.40;;;14.73;;
10904;SDS011;5505;51.450;9.254;2023-02-08T07:47:37;19.87;;;14.60;;
10904;SDS011;5505;51.450;9.254;2023-02-08T07:50:25;24.30;;;15.33;;
10904;SDS011;5505;51.450;9.254;2023-02-08T07:53:12;30.13;;;18.17;;
10904;SDS011;5505;51.450;9.254;2023-02-08T07:55:59;24.43;;;16.20;;
10904;SDS011;5505;51.450;9.254;2023-02-08T07:58:45;20.00;;;13.57;;
10904;SDS011;5505;51.450;9.254;2023-02-08T08:01:32;13.73;;;9.73;;
10904;SDS011;5505;51.450;9.254;2023-02-08T08:04:19;14.47;;;10.33;;
10904;SDS011;5505;51.450;9.254;2023-02-08T08:07:07;12.03;;;9.77;;
10904;SDS011;5505;51.450;9.254;2023-02-08T08:09:54;14.73;;;10.37;;
10904;SDS011;5505;51.450;9.254;2023-02-08T08:12:41;12.13;;;9.63;;
10904;SDS011;5505;51.450;9.254;2023-02-08T08:15:28;13.53;;;10.60;;
10904;SDS011;5505;51.450;9.254;2023-02-08T08:18:15;16.23;;;10.60;;
10904;SDS011;5505;51.450;9.254;2023-02-08T08:21:02;14.10;;;9.30;;
10904;SDS011;5505;51.450;9.254;2023-02-08T08:23:50;13.33;;;9.20;;
10904;SDS011;5505;51.450;9.254;2023-02-08T08:26:39;12.40;;;8.90;;
10904;SDS011;5505;51.450;9.254;2023-02-08T08:29:26;12.97;;;9.30;;
10904;SDS011;5505;51.450;9.254;2023-02-08T08:32:16;12.07;;;9.70;;
10904;SDS011;5505;51.450;9.254;2023-02-08T08:35:03;14.43;;;10.33;;
10904;SDS011;5505;51.450;9.254;2023-02-08T08:37:50;15.90;;;10.23;;
10904;SDS011;5505;51.450;9.254;2023-02-08T08:40:38;13.70;;;10.37;;
10904;SDS011;5505;51.450;9.254;2023-02-08T08:43:25;14.53;;;10.63;;
10904;SDS011;5505;51.450;9.254;2023-02-08T08:46:12;14.37;;;9.80;;
10904;SDS011;5505;51.450;9.254;2023-02-08T08:49:00;14.87;;;11.20;;
10904;SDS011;5505;51.450;9.254;2023-02-08T08:51:47;15.60;;;12.20;;
10904;SDS011;5505;51.450;9.254;2023-02-08T08:54:34;15.97;;;11.63;;
10904;SDS011;5505;51.450;9.254;2023-02-08T08:57:23;16.47;;;10.70;;
10904;SDS011;5505;51.450;9.254;2023-02-08T09:00:10;16.93;;;11.63;;
10904;SDS011;5505;51.450;9.254;2023-02-08T09:02:57;17.60;;;11.67;;
10904;SDS011;5505;51.450;9.254;2023-02-08T09:05:45;15.13;;;11.20;;
10904;SDS011;5505;51.450;9.254;2023-02-08T09:08:31;17.27;;;12.00;;
10904;SDS011;5505;51.450;9.254;2023-02-08T09:11:18;17.67;;;11.70;;
10904;SDS011;5505;51.450;9.254;2023-02-08T09:14:06;21.47;;;11.00;;
10904;SDS011;5505;51.450;9.254;2023-02-08T09:16:53;18.37;;;11.03;;
10904;SDS011;5505;51.450;9.254;2023-02-08T09:19:40;16.57;;;11.67;;
10904;SDS011;5505;51.450;9.254;2023-02-08T09:22:28;18.13;;;11.90;;
10904;SDS011;5505;51.450;9.254;2023-02-08T09:25:15;14.97;;;11.27;;
10904;SDS011;5505;51.450;9.254;2023-02-08T09:28:02;17.40;;;12.70;;
10904;SDS011;5505;51.450;9.254;2023-02-08T09:30:50;15.83;;;11.67;;
10904;SDS011;5505;51.450;9.254;2023-02-08T09:33:37;17.37;;;12.57;;
10904;SDS011;5505;51.450;9.254;2023-02-08T09:36:25;17.43;;;13.03;;
10904;SDS011;5505;51.450;9.254;2023-02-08T09:39:14;18.23;;;12.73;;
10904;SDS011;5505;51.450;9.254;2023-02-08T09:42:12;18.63;;;13.50;;
10904;SDS011;5505;51.450;9.254;2023-02-08T09:45:25;17.50;;;12.77;;
10904;SDS011;5505;51.450;9.254;2023-02-08T09:48:22;16.13;;;13.07;;
10904;SDS011;5505;51.450;9.254;2023-02-08T09:51:14;19.10;;;13.60;;
10904;SDS011;5505;51.450;9.254;2023-02-08T09:54:10;18.67;;;12.27;;
10904;SDS011;5505;51.450;9.254;2023-02-08T09:57:03;15.43;;;12.20;;
10904;SDS011;5505;51.450;9.254;2023-02-08T09:59:54;17.53;;;12.87;;
10904;SDS011;5505;51.450;9.254;2023-02-08T10:02:45;16.20;;;12.13;;
10904;SDS011;5505;51.450;9.254;2023-02-08T10:05:35;15.43;;;11.67;;
10904;SDS011;5505;51.450;9.254;2023-02-08T10:08:22;19.37;;;12.93;;
10904;SDS011;5505;51.450;9.254;2023-02-08T10:11:19;17.17;;;12.47;;
10904;SDS011;5505;51.450;9.254;2023-02-08T10:14:20;16.03;;;11.80;;
10904;SDS011;5505;51.450;9.254;2023-02-08T10:17:24;14.33;;;11.00;;
10904;SDS011;5505;51.450;9.254;2023-02-08T10:20:49;14.20;;;10.80;;
10904;SDS011;5505;51.450;9.254;2023-02-08T10:23:51;14.40;;;11.00;;
10904;SDS011;5505;51.450;9.254;2023-02-08T10:26:58;14.77;;;11.27;;
10904;SDS011;5505;51.450;9.254;2023-02-08T10:30:00;14.63;;;10.80;;
10904;SDS011;5505;51.450;9.254;2023-02-08T10:33:00;15.47;;;11.30;;
10904;SDS011;5505;51.450;9.254;2023-02-08T10:35:52;16.33;;;11.47;;
10904;SDS011;5505;51.450;9.254;2023-02-08T10:38:40;16.10;;;11.37;;
10904;SDS011;5505;51.450;9.254;2023-02-08T10:41:28;14.70;;;10.90;;
10904;SDS011;5505;51.450;9.254;2023-02-08T10:44:20;13.77;;;10.13;;
10904;SDS011;5505;51.450;9.254;2023-02-08T10:47:15;14.07;;;10.57;;
10904;SDS011;5505;51.450;9.254;2023-02-08T10:50:10;14.17;;;10.47;;
10904;SDS011;5505;51.450;9.254;2023-02-08T10:53:08;14.60;;;10.43;;
10904;SDS011;5505;51.450;9.254;2023-02-08T10:55:59;13.20;;;9.93;;
10904;SDS011;5505;51.450;9.254;2023-02-08T10:58:46;14.43;;;10.20;;
10904;SDS011;5505;51.450;9.254;2023-02-08T11:01:33;13.27;;;9.93;;
10904;SDS011;5505;51.450;9.254;2023-02-08T11:04:20;14.83;;;9.73;;
10904;SDS011;5505;51.450;9.254;2023-02-08T11:07:17;15.43;;;10.57;;
10904;SDS011;5505;51.450;9.254;2023-02-08T11:10:15;13.37;;;9.73;;
10904;SDS011;5505;51.450;9.254;2023-02-08T11:13:14;13.63;;;9.87;;
10904;SDS011;5505;51.450;9.254;2023-02-08T11:16:03;11.60;;;9.10;;
10904;SDS011;5505;51.450;9.254;2023-02-08T11:18:52;12.33;;;9.43;;
10904;SDS011;5505;51.450;9.254;2023-02-08T11:21:42;14.50;;;10.23;;
10904;SDS011;5505;51.450;9.254;2023-02-08T11:24:36;11.10;;;9.37;;
10904;SDS011;5505;51.450;9.254;2023-02-08T11:27:30;13.07;;;9.40;;
10904;SDS011;5505;51.450;9.254;2023-02-08T11:30:19;12.83;;;8.77;;
10904;SDS011;5505;51.450;9.254;2023-02-08T11:33:15;12.37;;;9.73;;
10904;SDS011;5505;51.450;9.254;2023-02-08T11:36:07;11.20;;;9.23;;
10904;SDS011;5505;51.450;9.254;2023-02-08T11:38:59;12.23;;;9.80;;
10904;SDS011;5505;51.450;9.254;2023-02-08T11:41:48;12.40;;;9.33;;
10904;SDS011;5505;51.450;9.254;2023-02-08T11:44:42;11.00;;;9.00;;
10904;SDS011;5505;51.450;9.254;2023-02-08T11:47:30;11.40;;;8.47;;
10904;SDS011;5505;51.450;9.254;2023-02-08T11:50:21;11.37;;;9.00;;
10904;SDS011;5505;51.450;9.254;2023-02-08T11:53:16;11.33;;;8.07;;
10904;SDS011;5505;51.450;9.254;2023-02-08T11:56:14;12.17;;;8.37;;
10904;SDS011;5505;51.450;9.254;2023-02-08T11:59:04;10.10;;;8.00;;
10904;SDS011;5505;51.450;9.254;2023-02-08T12:02:10;11.83;;;7.60;;
10904;SDS011;5505;51.450;9.254;2023-02-08T12:05:15;9.13;;;7.37;;
10904;SDS011;5505;51.450;9.254;2023-02-08T12:08:06;9.57;;;6.97;;
10904;SDS011;5505;51.450;9.254;2023-02-08T12:11:07;10.60;;;7.33;;
10904;SDS011;5505;51.450;9.254;2023-02-08T12:14:08;10.03;;;7.03;;
10904;SDS011;5505;51.450;9.254;2023-02-08T12:17:18;10.57;;;7.10;;
10904;SDS011;5505;51.450;9.254;2023-02-08T12:20:32;10.43;;;6.37;;
10904;SDS011;5505;51.450;9.254;2023-02-08T12:23:25;9.93;;;7.10;;
10904;SDS011;5505;51.450;9.254;2023-02-08T12:26:41;7.67;;;6.30;;
10904;SDS011;5505;51.450;9.254;2023-02-08T12:29:40;9.07;;;6.80;;
10904;SDS011;5505;51.450;9.254;2023-02-08T12:32:38;8.70;;;6.40;;
10904;SDS011;5505;51.450;9.254;2023-02-08T12:39:08;10.83;;;6.70;;
10904;SDS011;5505;51.450;9.254;2023-02-08T12:42:29;12.13;;;7.37;;
10904;SDS011;5505;51.450;9.254;2023-02-08T12:45:30;10.87;;;6.43;;
10904;SDS011;5505;51.450;9.254;2023-02-08T12:52:01;9.73;;;6.67;;
10904;SDS011;5505;51.450;9.254;2023-02-08T12:55:00;10.87;;;6.30;;
10904;SDS011;5505;51.450;9.254;2023-02-08T12:57:53;8.27;;;6.60;;
10904;SDS011;5505;51.450;9.254;2023-02-08T13:00:44;8.13;;;6.50;;
10904;SDS011;5505;51.450;9.254;2023-02-08T13:03:34;8.83;;;6.40;;
10904;SDS011;5505;51.450;9.254;2023-02-08T13:06:28;8.23;;;6.50;;
10904;SDS011;5505;51.450;9.254;2023-02-08T13:09:20;8.20;;;6.33;;
10904;SDS011;5505;51.450;9.254;2023-02-08T13:12:18;7.50;;;6.70;;
10904;SDS011;5505;51.450;9.254;2023-02-08T13:15:11;8.20;;;6.10;;
10904;SDS011;5505;51.450;9.254;2023-02-08T13:18:04;9.97;;;6.30;;
10904;SDS011;5505;51.450;9.254;2023-02-08T13:21:00;8.90;;;5.60;;
10904;SDS011;5505;51.450;9.254;2023-02-08T13:23:52;8.90;;;6.10;;
10904;SDS011;5505;51.450;9.254;2023-02-08T13:26:39;6.67;;;5.40;;
10904;SDS011;5505;51.450;9.254;2023-02-08T13:29:26;7.60;;;5.87;;
10904;SDS011;5505;51.450;9.254;2023-02-08T13:32:15;7.40;;;4.90;;
10904;SDS011;5505;51.450;9.254;2023-02-08T13:35:10;8.37;;;5.60;;
10904;SDS011;5505;51.450;9.254;2023-02-08T13:38:02;7.93;;;4.67;;
10904;SDS011;5505;51.450;9.254;2023-02-08T13:41:01;6.73;;;4.43;;
10904;SDS011;5505;51.450;9.254;2023-02-08T13:43:51;6.47;;;4.00;;
10904;SDS011;5505;51.450;9.254;2023-02-08T13:46:42;6.03;;;4.13;;
10904;SDS011;5505;51.450;9.254;2023-02-08T13:49:41;5.07;;;4.00;;
10904;SDS011;5505;51.450;9.254;2023-02-08T13:58:57;4.33;;;3.50;;
10904;SDS011;5505;51.450;9.254;2023-02-08T14:05:32;3.83;;;3.03;;
10904;SDS011;5505;51.450;9.254;2023-02-08T14:08:29;4.50;;;3.80;;
10904;SDS011;5505;51.450;9.254;2023-02-08T14:11:27;4.70;;;3.70;;
10904;SDS011;5505;51.450;9.254;2023-02-08T14:14:27;4.90;;;4.20;;
10904;SDS011;5505;51.450;9.254;2023-02-08T14:17:18;4.67;;;3.63;;
10904;SDS011;5505;51.450;9.254;2023-02-08T14:20:14;3.57;;;3.00;;
10904;SDS011;5505;51.450;9.254;2023-02-08T14:23:06;3.93;;;2.70;;
10904;SDS011;5505;51.450;9.254;2023-02-08T14:26:09;4.23;;;3.70;;
10904;SDS011;5505;51.450;9.254;2023-02-08T14:29:16;5.03;;;3.47;;
10904;SDS011;5505;51.450;9.254;2023-02-08T14:32:07;7.13;;;3.80;;
10904;SDS011;5505;51.450;9.254;2023-02-08T14:35:08;4.83;;;4.20;;
10904;SDS011;5505;51.450;9.254;2023-02-08T14:41:46;6.47;;;4.57;;
10904;SDS011;5505;51.450;9.254;2023-02-08T14:51:14;9.10;;;6.30;;
10904;SDS011;5505;51.450;9.254;2023-02-08T14:54:05;8.20;;;5.03;;
10904;SDS011;5505;51.450;9.254;2023-02-08T14:57:03;8.33;;;5.30;;
10904;SDS011;5505;51.450;9.254;2023-02-08T15:00:04;7.23;;;5.00;;
10904;SDS011;5505;51.450;9.254;2023-02-08T15:02:54;8.03;;;4.43;;
10904;SDS011;5505;51.450;9.254;2023-02-08T15:05:43;7.03;;;4.20;;
10904;SDS011;5505;51.450;9.254;2023-02-08T15:09:02;5.77;;;4.27;;
10904;SDS011;5505;51.450;9.254;2023-02-08T15:11:54;6.50;;;4.50;;
10904;SDS011;5505;51.450;9.254;2023-02-08T15:14:46;5.83;;;3.90;;
10904;SDS011;5505;51.450;9.254;2023-02-08T15:17:36;6.80;;;4.10;;
10904;SDS011;5505;51.450;9.254;2023-02-08T15:20:26;5.30;;;4.20;;
10904;SDS011;5505;51.450;9.254;2023-02-08T15:23:17;5.23;;;3.83;;
10904;SDS011;5505;51.450;9.254;2023-02-08T15:26:18;7.93;;;4.50;;
10904;SDS011;5505;51.450;9.254;2023-02-08T15:29:15;5.60;;;4.63;;
10904;SDS011;5505;51.450;9.254;2023-02-08T15:32:03;7.13;;;4.80;;
10904;SDS011;5505;51.450;9.254;2023-02-08T15:35:01;11.00;;;4.30;;
10904;SDS011;5505;51.450;9.254;2023-02-08T15:37:49;5.60;;;4.40;;
10904;SDS011;5505;51.450;9.254;2023-02-08T15:40:37;9.10;;;6.40;;
10904;SDS011;5505;51.450;9.254;2023-02-08T15:43:24;9.17;;;5.47;;
10904;SDS011;5505;51.450;9.254;2023-02-08T15:46:15;40.90;;;11.07;;
10904;SDS011;5505;51.450;9.254;2023-02-08T15:49:05;268.37;;;83.97;;
10904;SDS011;5505;51.450;9.254;2023-02-08T15:51:53;153.20;;;54.00;;
10904;SDS011;5505;51.450;9.254;2023-02-08T15:54:42;86.17;;;30.53;;
10904;SDS011;5505;51.450;9.254;2023-02-08T15:57:32;59.47;;;22.00;;
10904;SDS011;5505;51.450;9.254;2023-02-08T16:00:25;30.53;;;13.73;;
10904;SDS011;5505;51.450;9.254;2023-02-08T16:03:16;20.07;;;9.40;;
10904;SDS011;5505;51.450;9.254;2023-02-08T16:06:07;15.30;;;7.20;;
10904;SDS011;5505;51.450;9.254;2023-02-08T16:08:56;19.30;;;8.60;;
10904;SDS011;5505;51.450;9.254;2023-02-08T16:11:47;14.70;;;7.47;;
10904;SDS011;5505;51.450;9.254;2023-02-08T16:14:35;8.13;;;5.23;;
10904;SDS011;5505;51.450;9.254;2023-02-08T16:17:31;13.00;;;5.63;;
10904;SDS011;5505;51.450;9.254;2023-02-08T16:20:23;7.60;;;5.20;;
10904;SDS011;5505;51.450;9.254;2023-02-08T16:23:20;8.03;;;5.47;;
10904;SDS011;5505;51.450;9.254;2023-02-08T16:26:14;8.40;;;4.90;;
10904;SDS011;5505;51.450;9.254;2023-02-08T16:29:06;7.60;;;5.03;;
10904;SDS011;5505;51.450;9.254;2023-02-08T16:32:03;7.63;;;4.83;;
10904;SDS011;5505;51.450;9.254;2023-02-08T16:34:51;7.17;;;5.50;;
10904;SDS011;5505;51.450;9.254;2023-02-08T16:37:38;8.90;;;5.27;;
10904;SDS011;5505;51.450;9.254;2023-02-08T16:40:39;7.57;;;4.87;;
10904;SDS011;5505;51.450;9.254;2023-02-08T16:43:34;8.57;;;5.20;;
10904;SDS011;5505;51.450;9.254;2023-02-08T16:46:21;11.23;;;5.40;;
10904;SDS011;5505;51.450;9.254;2023-02-08T16:49:11;8.70;;;5.33;;
10904;SDS011;5505;51.450;9.254;2023-02-08T16:51:58;9.53;;;4.97;;
10904;SDS011;5505;51.450;9.254;2023-02-08T16:54:45;9.23;;;5.83;;
10904;SDS011;5505;51.450;9.254;2023-02-08T16:57:39;11.20;;;5.97;;
10904;SDS011;5505;51.450;9.254;2023-02-08T17:00:29;9.60;;;5.27;;
10904;SDS011;5505;51.450;9.254;2023-02-08T17:03:17;7.93;;;5.23;;
10904;SDS011;5505;51.450;9.254;2023-02-08T17:06:04;8.83;;;5.37;;
10904;SDS011;5505;51.450;9.254;2023-02-08T17:08:51;8.93;;;5.53;;
10904;SDS011;5505;51.450;9.254;2023-02-08T17:11:38;16.97;;;8.97;;
10904;SDS011;5505;51.450;9.254;2023-02-08T17:14:26;10.93;;;6.50;;
10904;SDS011;5505;51.450;9.254;2023-02-08T17:17:14;13.53;;;8.93;;
10904;SDS011;5505;51.450;9.254;2023-02-08T17:20:01;13.90;;;8.73;;
10904;SDS011;5505;51.450;9.254;2023-02-08T17:22:48;11.07;;;7.68;;
10904;SDS011;5505;51.450;9.254;2023-02-08T17:25:36;13.60;;;7.30;;
10904;SDS011;5505;51.450;9.254;2023-02-08T17:28:23;10.90;;;7.33;;
10904;SDS011;5505;51.450;9.254;2023-02-08T17:31:12;11.13;;;6.20;;
10904;SDS011;5505;51.450;9.254;2023-02-08T17:34:00;14.00;;;8.67;;
10904;SDS011;5505;51.450;9.254;2023-02-08T17:36:49;11.90;;;7.03;;
10904;SDS011;5505;51.450;9.254;2023-02-08T17:39:36;8.60;;;6.10;;
10904;SDS011;5505;51.450;9.254;2023-02-08T17:42:23;7.70;;;5.37;;
10904;SDS011;5505;51.450;9.254;2023-02-08T17:45:10;9.20;;;5.33;;